createdAt,value
2019-03-24T00:01:24.636Z,16.93
2019-03-24T00:03:55.876Z,17.13
2019-03-24T00:06:27.122Z,17.47
2019-03-24T00:08:58.411Z,16.73
2019-03-24T00:11:29.706Z,16.97
2019-03-24T00:14:00.932Z,17.13
2019-03-24T00:16:32.190Z,17.60
2019-03-24T00:19:03.488Z,17.87
2019-03-24T00:21:34.712Z,16.47
2019-03-24T00:24:05.952Z,17.83
2019-03-24T00:26:37.247Z,17.23
2019-03-24T00:29:08.512Z,16.33
2019-03-24T00:31:39.748Z,17.50
2019-03-24T00:34:10.993Z,18.00
2019-03-24T00:36:42.294Z,17.50
2019-03-24T00:39:13.515Z,16.83
2019-03-24T00:41:44.761Z,16.87
2019-03-24T00:44:15.982Z,17.10
2019-03-24T00:46:47.187Z,17.70
2019-03-24T00:49:18.413Z,18.20
2019-03-24T00:51:49.562Z,19.13
2019-03-24T00:54:20.873Z,17.23
2019-03-24T00:56:52.793Z,17.00
2019-03-24T00:59:24.050Z,17.63
2019-03-24T01:01:55.361Z,17.70
2019-03-24T01:04:26.514Z,18.00
2019-03-24T01:06:57.682Z,17.73
2019-03-24T01:09:29.148Z,17.13
2019-03-24T01:12:00.476Z,16.83
2019-03-24T01:14:31.733Z,17.87
2019-03-24T01:17:02.960Z,17.60
2019-03-24T01:19:34.128Z,16.70
2019-03-24T01:22:05.305Z,16.97
2019-03-24T01:24:36.575Z,16.87
2019-03-24T01:27:07.840Z,17.13
2019-03-24T01:29:38.915Z,18.00
2019-03-24T01:32:10.150Z,17.13
2019-03-24T01:34:41.370Z,18.47
2019-03-24T01:37:12.647Z,16.83
2019-03-24T01:39:43.840Z,17.07
2019-03-24T01:42:15.111Z,17.50
2019-03-24T01:44:46.310Z,17.33
2019-03-24T01:47:17.525Z,18.40
2019-03-24T01:49:48.819Z,18.37
2019-03-24T01:52:20.011Z,18.17
2019-03-24T01:54:51.270Z,18.17
2019-03-24T01:57:22.550Z,17.53
2019-03-24T01:59:53.914Z,17.87
2019-03-24T02:02:25.142Z,17.93
2019-03-24T02:04:56.420Z,18.70
2019-03-24T02:07:27.611Z,18.97
2019-03-24T02:09:58.882Z,18.57
2019-03-24T02:12:30.134Z,18.60
2019-03-24T02:15:01.435Z,18.60
2019-03-24T02:17:32.764Z,18.60
2019-03-24T02:20:04.005Z,18.17
2019-03-24T02:22:35.279Z,17.63
2019-03-24T02:25:06.606Z,17.80
2019-03-24T02:27:37.841Z,17.13
2019-03-24T02:30:09.791Z,18.57
2019-03-24T02:32:40.937Z,18.07
2019-03-24T02:35:12.154Z,17.80
2019-03-24T02:37:43.379Z,18.87
2019-03-24T02:40:14.596Z,17.77
2019-03-24T02:42:45.795Z,17.23
2019-03-24T02:45:17.530Z,18.23
2019-03-24T02:47:48.737Z,19.23
2019-03-24T02:50:20.052Z,19.47
2019-03-24T02:52:51.303Z,19.50
2019-03-24T02:55:22.581Z,19.47
2019-03-24T02:57:53.677Z,17.37
2019-03-24T03:00:24.803Z,17.93
2019-03-24T03:02:56.064Z,19.37
2019-03-24T03:05:27.348Z,19.03
2019-03-24T03:07:58.557Z,20.43
2019-03-24T03:10:29.782Z,18.47
2019-03-24T03:13:00.959Z,20.03
2019-03-24T03:15:32.241Z,20.17
2019-03-24T03:18:03.482Z,17.83
2019-03-24T03:20:34.653Z,18.20
2019-03-24T03:23:05.872Z,18.80
2019-03-24T03:25:37.063Z,19.07
2019-03-24T03:28:08.320Z,17.17
2019-03-24T03:30:39.602Z,19.03
2019-03-24T03:33:10.810Z,18.30
2019-03-24T03:35:41.996Z,18.77
2019-03-24T03:38:13.694Z,17.97
2019-03-24T03:40:45.027Z,20.00
2019-03-24T03:43:16.381Z,18.73
2019-03-24T03:45:47.659Z,16.90
2019-03-24T03:48:18.899Z,18.50
2019-03-24T03:50:50.091Z,19.27
2019-03-24T03:53:21.349Z,19.47
2019-03-24T03:55:52.581Z,18.63
2019-03-24T03:58:23.882Z,19.63
2019-03-24T04:00:55.157Z,19.33
2019-03-24T04:03:26.468Z,19.50
2019-03-24T04:05:57.729Z,19.57
2019-03-24T04:08:28.918Z,19.67
2019-03-24T04:11:00.206Z,19.30
2019-03-24T04:13:31.509Z,18.90
2019-03-24T04:16:02.721Z,19.90
2019-03-24T04:18:33.865Z,19.13
2019-03-24T04:21:24.015Z,19.80
2019-03-24T04:23:55.251Z,19.87
2019-03-24T04:26:26.515Z,18.90
2019-03-24T04:28:57.624Z,19.80
2019-03-24T04:31:28.868Z,18.93
2019-03-24T04:34:00.062Z,17.83
2019-03-24T04:36:31.317Z,17.80
2019-03-24T04:39:02.557Z,19.03
2019-03-24T04:41:33.857Z,18.43
2019-03-24T04:44:05.114Z,18.13
2019-03-24T04:46:36.365Z,20.57
2019-03-24T04:49:07.493Z,20.43
2019-03-24T04:51:38.719Z,19.67
2019-03-24T04:54:09.877Z,19.97
2019-03-24T04:56:41.164Z,19.57
2019-03-24T04:59:12.475Z,20.43
2019-03-24T05:01:43.764Z,20.80
2019-03-24T05:04:15.013Z,21.33
2019-03-24T05:06:46.267Z,21.77
2019-03-24T05:09:18.105Z,22.10
2019-03-24T05:11:49.267Z,21.67
2019-03-24T05:14:20.456Z,20.50
2019-03-24T05:16:51.811Z,19.67
2019-03-24T05:19:23.020Z,21.13
2019-03-24T05:21:54.242Z,20.53
2019-03-24T05:24:25.491Z,20.50
2019-03-24T05:26:56.818Z,21.10
2019-03-24T05:29:28.062Z,20.07
2019-03-24T05:31:59.158Z,20.10
2019-03-24T05:34:30.406Z,19.83
2019-03-24T05:37:01.694Z,20.27
2019-03-24T05:39:32.894Z,20.03
2019-03-24T05:42:04.190Z,19.57
2019-03-24T05:44:35.332Z,20.57
2019-03-24T05:47:06.617Z,20.27
2019-03-24T05:49:37.871Z,19.40
2019-03-24T05:52:09.104Z,20.50
2019-03-24T05:54:40.343Z,19.40
2019-03-24T05:57:11.699Z,20.93
2019-03-24T05:59:42.952Z,19.53
2019-03-24T06:02:14.225Z,20.00
2019-03-24T06:04:45.478Z,20.80
2019-03-24T06:07:16.630Z,22.93
2019-03-24T06:09:47.954Z,20.57
2019-03-24T06:12:19.226Z,22.37
2019-03-24T06:14:50.596Z,21.90
2019-03-24T06:17:21.884Z,22.87
2019-03-24T06:19:53.090Z,22.53
2019-03-24T06:22:24.338Z,24.07
2019-03-24T06:24:55.686Z,22.57
2019-03-24T06:27:26.991Z,23.10
2019-03-24T06:29:58.246Z,23.00
2019-03-24T06:32:29.543Z,21.70
2019-03-24T06:35:00.810Z,22.30
2019-03-24T06:37:32.050Z,20.63
2019-03-24T06:40:03.355Z,21.47
2019-03-24T06:42:34.569Z,20.70
2019-03-24T06:45:05.982Z,20.60
2019-03-24T06:47:37.286Z,20.10
2019-03-24T06:50:09.600Z,25.27
2019-03-24T06:52:41.053Z,24.07
2019-03-24T06:55:12.520Z,22.73
2019-03-24T06:57:43.729Z,22.27
2019-03-24T07:00:15.104Z,22.43
2019-03-24T07:02:46.268Z,22.10
2019-03-24T07:05:17.687Z,23.03
2019-03-24T07:07:48.863Z,24.60
2019-03-24T07:10:20.134Z,24.27
2019-03-24T07:12:51.545Z,24.27
2019-03-24T07:15:22.898Z,25.77
2019-03-24T07:17:54.111Z,25.73
2019-03-24T07:20:25.356Z,29.23
2019-03-24T07:22:56.611Z,28.10
2019-03-24T07:25:27.829Z,29.30
2019-03-24T07:27:59.085Z,29.67
2019-03-24T07:30:30.402Z,26.50
2019-03-24T07:33:01.608Z,30.70
2019-03-24T07:35:32.876Z,30.07
2019-03-24T07:38:04.147Z,29.50
2019-03-24T07:40:35.463Z,28.13
2019-03-24T07:43:06.765Z,27.70
2019-03-24T07:45:38.135Z,27.70
2019-03-24T07:48:18.764Z,32.10
2019-03-24T07:50:42.329Z,33.93
2019-03-24T07:53:13.572Z,33.30
2019-03-24T07:55:44.752Z,32.67
2019-03-24T07:58:15.997Z,31.03
2019-03-24T08:00:47.249Z,34.30
2019-03-24T08:03:18.452Z,34.07
2019-03-24T08:05:49.697Z,34.00
2019-03-24T08:08:20.989Z,34.03
2019-03-24T08:10:52.198Z,32.33
2019-03-24T08:13:24.871Z,34.17
2019-03-24T08:15:56.021Z,32.33
2019-03-24T08:18:30.124Z,38.23
2019-03-24T08:21:00.132Z,42.37
2019-03-24T08:23:31.308Z,73.40
2019-03-24T08:26:02.579Z,34.53
2019-03-24T08:28:33.883Z,32.13
2019-03-24T08:31:05.076Z,32.43
2019-03-24T08:33:36.352Z,30.43
2019-03-24T08:36:09.626Z,30.63
2019-03-24T08:38:40.869Z,28.67
2019-03-24T08:41:12.014Z,34.47
2019-03-24T08:43:43.279Z,36.00
2019-03-24T08:46:14.552Z,31.03
2019-03-24T08:48:45.802Z,33.17
2019-03-24T08:51:17.004Z,33.53
2019-03-24T08:53:48.324Z,34.57
2019-03-24T08:56:19.519Z,35.50
2019-03-24T08:58:50.754Z,34.17
2019-03-24T09:01:21.948Z,33.50
2019-03-24T09:03:53.074Z,33.20
2019-03-24T09:06:24.367Z,32.93
2019-03-24T09:08:55.662Z,35.90
2019-03-24T09:11:31.121Z,36.20
2019-03-24T09:13:59.903Z,35.03
2019-03-24T09:16:31.156Z,35.30
2019-03-24T09:19:02.377Z,33.67
2019-03-24T09:21:33.629Z,33.13
2019-03-24T09:24:04.977Z,34.53
2019-03-24T09:26:36.783Z,35.33
2019-03-24T09:29:08.116Z,32.77
2019-03-24T09:31:39.343Z,35.30
2019-03-24T09:34:10.559Z,35.80
2019-03-24T09:36:41.864Z,37.50
2019-03-24T09:39:13.161Z,34.23
2019-03-24T09:41:44.474Z,35.10
2019-03-24T09:44:15.547Z,35.03
2019-03-24T09:46:46.725Z,34.53
2019-03-24T09:49:17.937Z,35.97
2019-03-24T09:51:47.814Z,35.37
2019-03-24T09:54:19.101Z,36.50
2019-03-24T09:56:50.331Z,34.00
2019-03-24T09:59:21.486Z,34.10
2019-03-24T10:01:52.712Z,36.37
2019-03-24T10:04:23.943Z,30.27
2019-03-24T10:06:55.189Z,67.23
2019-03-24T10:09:26.400Z,35.90
2019-03-24T10:11:57.579Z,35.40
2019-03-24T10:14:28.842Z,38.13
2019-03-24T10:17:00.046Z,36.83
2019-03-24T10:19:31.227Z,33.48
2019-03-24T10:22:02.448Z,32.85
2019-03-24T10:24:33.706Z,34.53
2019-03-24T10:27:05.030Z,36.80
2019-03-24T10:29:36.374Z,33.47
2019-03-24T10:32:07.620Z,34.55
2019-03-24T10:34:38.889Z,31.70
2019-03-24T10:37:10.190Z,31.55
2019-03-24T10:39:41.413Z,34.18
2019-03-24T10:42:12.679Z,34.70
2019-03-24T10:44:43.925Z,30.30
2019-03-24T10:47:15.208Z,33.18
2019-03-24T10:49:46.560Z,32.70
2019-03-24T10:52:19.825Z,35.88
2019-03-24T10:54:50.773Z,33.23
2019-03-24T10:57:22.130Z,32.58
2019-03-24T10:59:53.323Z,34.27
2019-03-24T11:02:24.594Z,35.58
2019-03-24T11:04:55.910Z,36.60
2019-03-24T11:07:27.139Z,35.33
2019-03-24T11:09:58.448Z,36.80
2019-03-24T11:12:29.759Z,34.10
2019-03-24T11:15:01.053Z,33.43
2019-03-24T11:17:32.346Z,32.05
2019-03-24T11:20:03.734Z,33.83
2019-03-24T11:22:34.966Z,33.00
2019-03-24T11:25:08.535Z,33.70
2019-03-24T11:27:40.180Z,35.00
2019-03-24T11:30:13.741Z,34.75
2019-03-24T11:32:45.023Z,36.28
2019-03-24T11:35:16.283Z,33.50
2019-03-24T11:37:47.545Z,33.90
2019-03-24T11:40:18.909Z,33.63
2019-03-24T11:42:50.396Z,32.67
2019-03-24T11:45:21.629Z,33.58
2019-03-24T11:47:52.848Z,35.55
2019-03-24T11:50:24.196Z,35.25
2019-03-24T11:52:55.485Z,33.25
2019-03-24T11:55:26.790Z,35.60
2019-03-24T11:58:05.593Z,33.42
2019-03-24T12:00:40.022Z,32.67
2019-03-24T12:03:11.261Z,31.47
2019-03-24T12:05:42.573Z,30.57
2019-03-24T12:08:13.974Z,33.53
2019-03-24T12:10:45.671Z,34.70
2019-03-24T12:13:16.844Z,34.75
2019-03-24T12:15:48.075Z,33.73
2019-03-24T12:18:19.464Z,34.27
2019-03-24T12:20:50.750Z,36.10
2019-03-24T12:23:22.035Z,34.30
2019-03-24T12:25:53.344Z,31.53
2019-03-24T12:28:24.688Z,34.20
2019-03-24T12:30:55.934Z,28.60
2019-03-24T12:33:27.148Z,30.53
2019-03-24T12:35:58.442Z,30.20
2019-03-24T12:38:29.665Z,32.80
2019-03-24T12:41:00.955Z,28.53
2019-03-24T12:43:32.246Z,30.15
2019-03-24T12:46:03.609Z,28.47
2019-03-24T12:48:34.865Z,30.37
2019-03-24T12:51:06.148Z,31.42
2019-03-24T12:53:37.389Z,31.75
2019-03-24T12:56:08.761Z,30.77
2019-03-24T12:58:40.133Z,31.60
2019-03-24T13:01:12.534Z,29.92
2019-03-24T13:03:43.805Z,33.13
2019-03-24T13:06:15.084Z,30.50
2019-03-24T13:08:46.474Z,29.15
2019-03-24T13:11:18.000Z,29.90
2019-03-24T13:13:49.329Z,32.23
2019-03-24T13:16:20.794Z,29.45
2019-03-24T13:18:52.341Z,30.40
2019-03-24T13:21:25.997Z,30.57
2019-03-24T13:23:57.456Z,30.90
2019-03-24T13:26:28.835Z,27.00
2019-03-24T13:29:00.160Z,29.57
2019-03-24T13:31:33.226Z,29.77
2019-03-24T13:34:04.489Z,32.23
2019-03-24T13:36:38.859Z,32.80
2019-03-24T13:39:10.096Z,31.53
2019-03-24T13:41:41.363Z,32.07
2019-03-24T13:44:17.807Z,30.70
2019-03-24T13:46:49.167Z,27.57
2019-03-24T13:49:22.770Z,31.27
2019-03-24T13:51:54.132Z,31.00
2019-03-24T13:54:25.433Z,31.57
2019-03-24T13:56:56.801Z,39.30
2019-03-24T13:59:28.057Z,30.80
2019-03-24T14:01:59.356Z,29.83
2019-03-24T14:04:30.629Z,32.17
2019-03-24T14:07:02.247Z,31.23
2019-03-24T14:09:33.348Z,30.53
2019-03-24T14:12:04.616Z,31.30
2019-03-24T14:14:35.900Z,30.80
2019-03-24T14:17:07.203Z,30.67
2019-03-24T14:19:38.527Z,38.07
2019-03-24T14:22:09.798Z,32.43
2019-03-24T14:24:41.180Z,45.23
2019-03-24T14:27:12.481Z,34.20
2019-03-24T14:29:43.768Z,35.53
2019-03-24T14:32:15.035Z,30.67
2019-03-24T14:34:46.397Z,33.87
2019-03-24T14:37:17.710Z,30.03
2019-03-24T14:39:49.161Z,33.77
2019-03-24T14:42:20.448Z,33.73
2019-03-24T14:44:51.757Z,29.20
2019-03-24T14:47:22.964Z,32.77
2019-03-24T14:49:54.208Z,29.67
2019-03-24T14:52:25.521Z,30.40
2019-03-24T14:54:56.847Z,31.20
2019-03-24T14:57:28.090Z,29.77
2019-03-24T14:59:59.358Z,28.43
2019-03-24T15:02:30.640Z,33.50
2019-03-24T15:05:01.945Z,80.43
2019-03-24T15:07:33.215Z,45.47
2019-03-24T15:10:04.845Z,40.57
2019-03-24T15:12:36.146Z,32.90
2019-03-24T15:15:07.637Z,31.53
2019-03-24T15:17:38.867Z,32.10
2019-03-24T15:20:10.087Z,31.53
2019-03-24T15:22:41.377Z,33.30
2019-03-24T15:25:12.603Z,32.20
2019-03-24T15:27:43.870Z,32.63
2019-03-24T15:30:15.880Z,29.73
2019-03-24T15:32:47.104Z,37.27
2019-03-24T15:35:18.398Z,45.50
2019-03-24T15:37:49.641Z,50.30
2019-03-24T15:40:20.915Z,30.47
2019-03-24T15:42:52.239Z,30.57
2019-03-24T15:45:23.492Z,30.70
2019-03-24T15:47:54.749Z,29.27
2019-03-24T15:50:26.047Z,32.93
2019-03-24T15:52:57.352Z,29.97
2019-03-24T15:55:52.566Z,35.40
2019-03-24T15:58:23.853Z,43.27
2019-03-24T16:00:55.169Z,33.33
2019-03-24T16:03:36.493Z,31.50
2019-03-24T16:06:07.706Z,34.30
2019-03-24T16:08:39.058Z,30.90
2019-03-24T16:11:10.425Z,34.37
2019-03-24T16:13:41.732Z,29.30
2019-03-24T16:16:13.247Z,28.30
2019-03-24T16:18:44.642Z,29.37
2019-03-24T16:21:26.949Z,29.57
2019-03-24T16:23:51.294Z,28.63
2019-03-24T16:26:25.360Z,38.67
2019-03-24T16:28:56.641Z,28.77
2019-03-24T16:31:28.015Z,28.87
2019-03-24T16:33:59.422Z,29.77
2019-03-24T16:36:30.791Z,28.73
2019-03-24T16:39:03.778Z,29.13
2019-03-24T16:41:35.424Z,27.87
2019-03-24T16:44:06.852Z,25.03
2019-03-24T16:46:38.195Z,27.67
2019-03-24T16:49:09.603Z,27.20
2019-03-24T16:51:41.719Z,26.77
2019-03-24T16:54:13.111Z,29.30
2019-03-24T16:56:45.489Z,31.23
2019-03-24T16:59:16.809Z,28.27
2019-03-24T17:01:48.135Z,27.50
2019-03-24T17:04:19.525Z,26.80
2019-03-24T17:06:50.894Z,26.73
2019-03-24T17:09:22.137Z,26.70
2019-03-24T17:11:53.551Z,29.13
2019-03-24T17:14:24.920Z,29.07
2019-03-24T17:16:56.415Z,26.80
2019-03-24T17:19:27.688Z,28.23
2019-03-24T17:21:58.938Z,28.77
2019-03-24T17:24:30.372Z,31.70
2019-03-24T17:27:01.747Z,31.43
2019-03-24T17:29:33.151Z,39.83
2019-03-24T17:32:04.494Z,39.53
2019-03-24T17:34:35.811Z,43.67
2019-03-24T17:37:07.066Z,39.83
2019-03-24T17:39:38.511Z,36.07
2019-03-24T17:42:09.834Z,38.10
2019-03-24T17:44:41.367Z,42.63
2019-03-24T17:47:12.712Z,42.33
2019-03-24T17:49:44.082Z,38.60
2019-03-24T17:52:15.742Z,47.43
2019-03-24T17:54:47.635Z,41.50
2019-03-24T17:57:19.098Z,44.53
2019-03-24T17:59:50.455Z,43.80
2019-03-24T18:02:21.913Z,44.13
2019-03-24T18:04:53.477Z,41.70
2019-03-24T18:07:24.866Z,79.20
2019-03-24T18:09:56.471Z,96.70
2019-03-24T18:12:27.937Z,55.23
2019-03-24T18:14:59.506Z,41.73
2019-03-24T18:17:30.867Z,41.60
2019-03-24T18:20:02.590Z,42.50
2019-03-24T18:22:34.355Z,43.90
2019-03-24T18:25:06.862Z,41.77
2019-03-24T18:27:38.215Z,42.33
2019-03-24T18:30:12.664Z,42.23
2019-03-24T18:32:44.040Z,43.80
2019-03-24T18:35:15.579Z,57.97
2019-03-24T18:37:46.943Z,59.17
2019-03-24T18:40:18.981Z,54.80
2019-03-24T18:42:50.249Z,57.33
2019-03-24T18:45:21.873Z,45.20
2019-03-24T18:47:53.844Z,42.40
2019-03-24T18:50:25.358Z,40.60
2019-03-24T18:52:56.728Z,42.60
2019-03-24T18:55:28.146Z,41.17
2019-03-24T18:57:59.683Z,43.03
2019-03-24T19:00:31.162Z,43.33
2019-03-24T19:03:02.709Z,39.23
2019-03-24T19:05:35.209Z,40.07
2019-03-24T19:08:06.883Z,39.37
2019-03-24T19:10:38.330Z,40.57
2019-03-24T19:13:10.232Z,40.87
2019-03-24T19:15:41.820Z,40.63
2019-03-24T19:18:15.492Z,39.52
2019-03-24T19:20:46.823Z,39.47
2019-03-24T19:23:18.244Z,40.67
2019-03-24T19:25:49.503Z,39.20
2019-03-24T19:28:20.920Z,39.30
2019-03-24T19:30:52.170Z,40.20
2019-03-24T19:33:23.473Z,42.07
2019-03-24T19:35:54.721Z,38.73
2019-03-24T19:38:26.672Z,40.70
2019-03-24T19:40:57.825Z,41.53
2019-03-24T19:43:29.165Z,40.47
2019-03-24T19:46:00.512Z,44.07
2019-03-24T19:48:32.218Z,40.70
2019-03-24T19:51:03.465Z,42.50
2019-03-24T19:53:34.747Z,41.83
2019-03-24T19:56:06.436Z,41.37
2019-03-24T19:58:37.731Z,43.20
2019-03-24T20:01:08.969Z,42.40
2019-03-24T20:03:40.243Z,43.67
2019-03-24T20:06:11.542Z,41.70
2019-03-24T20:08:42.785Z,44.33
2019-03-24T20:11:14.064Z,44.20
2019-03-24T20:13:45.321Z,42.97
2019-03-24T20:16:16.706Z,40.80
2019-03-24T20:18:48.030Z,43.03
2019-03-24T20:21:19.195Z,42.90
2019-03-24T20:23:50.522Z,41.97
2019-03-24T20:26:21.737Z,43.53
2019-03-24T20:28:53.767Z,44.37
2019-03-24T20:31:25.029Z,43.93
2019-03-24T20:33:56.349Z,44.30
2019-03-24T20:36:27.622Z,43.90
2019-03-24T20:38:58.977Z,44.83
2019-03-24T20:41:30.254Z,44.10
2019-03-24T20:44:01.480Z,45.40
2019-03-24T20:46:32.827Z,43.50
2019-03-24T20:49:04.191Z,44.17
2019-03-24T20:51:35.488Z,41.93
2019-03-24T20:54:06.849Z,43.90
2019-03-24T20:56:38.176Z,44.57
2019-03-24T20:59:09.405Z,43.47
2019-03-24T21:01:40.565Z,43.10
2019-03-24T21:04:11.861Z,43.00
2019-03-24T21:06:43.075Z,44.03
2019-03-24T21:09:14.678Z,43.77
2019-03-24T21:11:45.895Z,44.57
2019-03-24T21:14:17.176Z,46.03
2019-03-24T21:16:48.440Z,41.90
2019-03-24T21:19:19.761Z,41.53
2019-03-24T21:21:51.499Z,42.77
2019-03-24T21:24:22.746Z,44.97
2019-03-24T21:26:54.000Z,42.93
2019-03-24T21:29:25.375Z,46.00
2019-03-24T21:31:56.498Z,44.93
2019-03-24T21:34:27.650Z,45.60
2019-03-24T21:36:59.006Z,43.80
2019-03-24T21:39:30.290Z,44.10
2019-03-24T21:42:01.659Z,43.33
2019-03-24T21:44:32.827Z,41.90
2019-03-24T21:47:04.112Z,40.77
2019-03-24T21:49:35.376Z,42.70
2019-03-24T21:52:06.812Z,41.90
2019-03-24T21:54:38.014Z,41.40
2019-03-24T21:57:09.259Z,41.50
2019-03-24T21:59:40.526Z,41.03
2019-03-24T22:02:11.884Z,41.97
2019-03-24T22:04:43.277Z,41.27
2019-03-24T22:07:14.468Z,41.63
2019-03-24T22:09:45.744Z,43.30
2019-03-24T22:12:17.117Z,42.77
2019-03-24T22:14:48.400Z,44.63
2019-03-24T22:17:19.718Z,46.57
2019-03-24T22:19:50.955Z,46.70
2019-03-24T22:22:22.188Z,47.43
2019-03-24T22:24:53.518Z,47.90
2019-03-24T22:27:24.803Z,47.17
2019-03-24T22:29:55.933Z,44.63
2019-03-24T22:32:27.191Z,47.60
2019-03-24T22:34:58.475Z,45.17
2019-03-24T22:37:29.611Z,47.63
2019-03-24T22:40:00.783Z,47.07
2019-03-24T22:42:31.997Z,47.93
2019-03-24T22:45:03.297Z,46.87
2019-03-24T22:47:34.509Z,46.07
2019-03-24T22:50:06.375Z,47.53
2019-03-24T22:52:37.711Z,48.63
2019-03-24T22:55:09.754Z,46.33
2019-03-24T22:57:40.961Z,46.73
2019-03-24T23:00:32.995Z,46.33
2019-03-24T23:03:04.223Z,43.73
2019-03-24T23:05:35.507Z,47.63
2019-03-24T23:08:06.797Z,45.60
2019-03-24T23:10:38.099Z,46.40
2019-03-24T23:13:09.369Z,43.67
2019-03-24T23:15:40.562Z,46.60
2019-03-24T23:18:11.874Z,45.93
2019-03-24T23:20:43.178Z,44.67
2019-03-24T23:23:14.395Z,45.13
2019-03-24T23:25:45.650Z,46.30
2019-03-24T23:28:16.793Z,44.47
2019-03-24T23:30:48.073Z,43.83
2019-03-24T23:33:19.371Z,44.20
2019-03-24T23:35:50.580Z,45.07
2019-03-24T23:38:21.798Z,44.90
2019-03-24T23:40:53.244Z,44.90
2019-03-24T23:43:24.519Z,44.00
2019-03-24T23:45:55.788Z,45.07
2019-03-24T23:48:27.023Z,45.73
2019-03-24T23:50:58.138Z,45.43
2019-03-24T23:53:29.353Z,46.40
2019-03-24T23:56:00.627Z,48.20
2019-03-24T23:58:40.837Z,44.77
